Time;durP1;ratioP1;P1;durP2;ratioP2;P2;SDS_P1;SDS_P2;PMS_P1;PMS_P2;Temp;Humidity;BMP_temperature;BMP_pressure;BME280_temperature;BME280_humidity;BME280_pressure;Samples;Min_cycle;Max_cycle;Signal;HPM_P1;HPM_P2
2022/03/02 00:00:47;;;;;;;;;;;;;;;1.45;72.57;100507.41;4991411;28;19921;-84
2022/03/02 00:03:12;;;;;;;;;;;;;;;1.48;72.73;100500.44;4992505;28;19984;-81
2022/03/02 00:05:38;;;;;;;;;;;;;;;1.44;72.68;100505.66;4992672;28;19964;-86
2022/03/02 00:08:03;;;;;;;;;;;;;;;1.42;72.69;100512.59;4992649;28;20005;-86
2022/03/02 00:10:29;;;;;;;;;;;;;;;1.43;72.65;100514.34;4992002;28;20412;-79
2022/03/02 00:12:54;;;;;;;;;;;;;;;1.51;72.67;100510.91;4992587;28;19949;-83
2022/03/02 00:15:19;;;;;;;;;;;;;;;1.49;72.44;100508.28;4991348;28;19918;-77
2022/03/02 04:30:55;;;;;;;;;;;;;;;2.18;89.55;100295.91;4948962;28;19933;-78
2022/03/02 04:33:20;;;;;;;;;;;;;;;2.15;89.58;100307.25;4963218;28;19927;-78
2022/03/02 04:35:46;;;;;;;;;;;;;;;2.13;88.79;100300.28;4963226;28;20065;-79
2022/03/02 04:38:11;;;;;;;;;;;;;;;2.15;88.77;100302.03;4963922;28;19944;-78
2022/03/02 04:40:37;;;;;;;;;;;;;;;1.98;88.38;100307.25;4964011;28;19918;-81
2022/03/02 04:43:02;;;;;;;;;;;;;;;2.08;87.75;100302.03;4966098;28;19929;-79
2022/03/02 04:45:27;;;;;;;;;;;;;;;2.10;87.42;100293.28;4966966;28;19914;-78
2022/03/02 04:47:58;;;;;;;;;;;;;;;2.04;87.16;100297.66;4966428;28;20328;-80
2022/03/02 04:50:24;;;;;;;;;;;;;;;1.94;86.57;100299.41;4981425;28;20200;-79
2022/03/02 04:52:50;;;;;;;;;;;;;;;1.93;86.57;100290.69;4965927;28;19973;-80
2022/03/02 04:55:16;;;;;;;;;;;;;;;1.75;86.04;100290.66;4967033;28;19918;-80
2022/03/02 04:57:44;;;;;;;;;;;;;;;1.77;86.03;100289.81;4967206;28;19929;-80
2022/03/02 05:00:13;;;;;;;;;;;;;;;1.77;85.81;100283.69;4965909;28;20280;-79
2022/03/02 05:02:38;;;;;;;;;;;;;;;1.79;85.76;100281.97;4966455;28;20001;-80
2022/03/02 05:05:04;;;;;;;;;;;;;;;1.68;85.36;100283.72;4966689;28;20021;-80
2022/03/02 05:07:30;;;;;;;;;;;;;;;1.57;84.84;100284.53;4966320;28;19988;-79
2022/03/02 05:09:55;;;;;;;;;;;;;;;1.82;86.01;100281.97;4966428;28;20425;-80
2022/03/02 05:12:20;;;;;;;;;;;;;;;1.91;87.85;100281.97;4965672;28;19918;-78
2022/03/02 05:14:46;;;;;;;;;;;;;;;1.88;88.40;100278.47;4965301;28;19954;-81
2022/03/02 05:17:12;;;;;;;;;;;;;;;1.93;88.58;100275.00;4964682;28;20362;-81
2022/03/02 05:19:39;;;;;;;;;;;;;;;1.88;88.40;100275.88;4965040;28;19926;-81
2022/03/02 05:22:04;;;;;;;;;;;;;;;1.85;88.48;100271.53;4966703;28;19922;-81
2022/03/02 05:24:29;;;;;;;;;;;;;;;1.73;88.19;100271.50;4966261;28;19925;-80
2022/03/02 05:26:55;;;;;;;;;;;;;;;1.73;88.23;100271.50;4966005;28;20370;-82
2022/03/02 05:29:20;;;;;;;;;;;;;;;1.68;87.59;100273.25;4965010;28;20009;-81
2022/03/02 05:31:46;;;;;;;;;;;;;;;1.63;87.44;100265.41;4981084;28;19981;-81
2022/03/02 05:34:11;;;;;;;;;;;;;;;1.58;87.49;100267.13;4966040;28;19919;-81
2022/03/02 05:36:36;;;;;;;;;;;;;;;1.45;87.02;100256.69;4965870;28;19929;-81
2022/03/02 05:39:02;;;;;;;;;;;;;;;1.52;86.98;100260.16;4966711;28;19918;-80
2022/03/02 05:41:27;;;;;;;;;;;;;;;1.49;86.99;100261.91;4965735;28;20001;-78
2022/03/02 05:43:53;;;;;;;;;;;;;;;1.45;86.52;100264.50;4979830;28;19918;-79
2022/03/02 05:46:18;;;;;;;;;;;;;;;1.44;86.42;100265.38;4965837;28;20049;-79
2022/03/02 05:48:44;;;;;;;;;;;;;;;1.43;86.19;100257.53;4965502;28;19919;-81
2022/03/02 08:51:06;;;;;;;;;;;;;;;1.10;77.56;100290.50;4969222;28;19933;-79
2022/03/02 08:53:32;;;;;;;;;;;;;;;0.98;77.62;100286.09;4971419;28;19926;-79
2022/03/02 08:55:59;;;;;;;;;;;;;;;1.07;77.85;100277.47;4972897;28;20034;-78
2022/03/02 08:58:25;;;;;;;;;;;;;;;1.13;78.10;100281.81;4973082;28;19922;-77
2022/03/02 09:00:52;;;;;;;;;;;;;;;1.11;77.83;100284.41;4972906;28;19940;-78
2022/03/02 09:03:17;;;;;;;;;;;;;;;1.08;78.19;100282.66;4969106;28;19922;-81
2022/03/02 09:05:42;;;;;;;;;;;;;;;1.09;77.96;100279.19;4967174;28;20047;-80
2022/03/02 09:08:11;;;;;;;;;;;;;;;1.04;77.50;100273.09;4971379;28;20284;-79
2022/03/02 09:10:36;;;;;;;;;;;;;;;1.03;77.26;100273.94;4972753;28;19925;-80
2022/03/02 09:13:02;;;;;;;;;;;;;;;1.02;77.12;100280.06;4972615;28;19918;-79
2022/03/02 09:15:28;;;;;;;;;;;;;;;1.05;76.99;100280.06;4972612;28;19918;-80
2022/03/02 09:17:53;;;;;;;;;;;;;;;1.01;77.04;100273.06;4986174;28;19926;-77
2022/03/02 09:20:19;;;;;;;;;;;;;;;1.04;77.08;100272.22;4987443;28;20341;-79
2022/03/02 09:22:44;;;;;;;;;;;;;;;1.07;76.96;100269.63;4972590;28;19918;-78
2022/03/02 09:25:10;;;;;;;;;;;;;;;1.08;76.75;100266.13;4970577;28;20496;-81
2022/03/02 09:27:36;;;;;;;;;;;;;;;1.11;76.67;100260.94;4971868;28;19960;-77
2022/03/02 09:30:03;;;;;;;;;;;;;;;1.13;76.59;100259.19;4974805;28;20273;-78
2022/03/02 09:32:30;;;;;;;;;;;;;;;1.09;76.28;100249.63;4990066;28;20257;-81
2022/03/02 09:34:57;;;;;;;;;;;;;;;1.10;76.46;100253.94;4973320;28;20290;-81
2022/03/02 09:37:23;;;;;;;;;;;;;;;1.10;76.33;100251.34;4975770;28;19933;-81
2022/03/02 09:39:49;;;;;;;;;;;;;;;1.11;76.21;100244.41;4975787;28;19918;-81
2022/03/02 09:42:18;;;;;;;;;;;;;;;1.05;75.97;100248.75;4975617;28;19940;-82
2022/03/02 09:44:45;;;;;;;;;;;;;;;1.15;76.02;100244.41;4975886;28;19922;-82
2022/03/02 09:47:20;;;;;;;;;;;;;;;1.17;75.78;100244.44;4975399;28;19918;-82
2022/03/02 09:49:52;;;;;;;;;;;;;;;1.21;75.64;100248.78;4989164;28;20365;-80
2022/03/02 09:52:19;;;;;;;;;;;;;;;1.15;75.61;100241.81;4975333;28;19973;-78
2022/03/02 09:54:45;;;;;;;;;;;;;;;1.20;75.48;100247.91;4975539;28;19969;-79
2022/03/02 09:57:11;;;;;;;;;;;;;;;1.15;75.20;100247.03;4974053;28;19918;-80
2022/03/02 09:59:38;;;;;;;;;;;;;;;1.15;75.25;100247.03;4975429;28;19993;-82
2022/03/02 10:02:06;;;;;;;;;;;;;;;1.17;75.21;100244.44;4975382;28;19925;-78
2022/03/02 10:04:32;;;;;;;;;;;;;;;1.13;74.97;100238.31;4973110;28;20364;-80
2022/03/02 10:07:26;;;;;;;;;;;;;;;1.16;75.05;100238.31;4975221;28;19918;-78
2022/03/02 10:09:46;;;;;;;;;;;;;;;1.16;74.76;100240.91;4975292;28;19914;-77
2022/03/02 10:12:14;;;;;;;;;;;;;;;1.20;74.59;100242.69;4973566;28;20001;-78
2022/03/02 10:14:39;;;;;;;;;;;;;;;1.13;74.75;100243.53;4973548;28;19918;-81
2022/03/02 10:17:04;;;;;;;;;;;;;;;1.18;74.76;100240.94;4973693;28;20049;-82
2022/03/02 10:19:33;;;;;;;;;;;;;;;1.15;74.82;100236.59;4972401;28;19969;-81
2022/03/02 10:22:22;;;;;;;;;;;;;;;1.20;74.76;100242.69;4973849;28;19922;-78
2022/03/02 10:24:48;;;;;;;;;;;;;;;1.20;74.73;100240.06;4973623;28;20274;-78
2022/03/02 10:27:32;;;;;;;;;;;;;;;1.20;74.45;100234.84;4974868;28;19972;-79
2022/03/02 10:30:04;;;;;;;;;;;;;;;1.07;74.33;100240.91;4974962;28;20284;-78
2022/03/02 10:32:32;;;;;;;;;;;;;;;1.16;74.38;100242.66;4974730;28;19918;-79
2022/03/02 10:35:00;;;;;;;;;;;;;;;1.22;74.61;100233.09;4973530;28;19922;-81
2022/03/02 10:37:31;;;;;;;;;;;;;;;1.13;74.17;100235.69;4974602;28;20297;-78
2022/03/02 10:40:09;;;;;;;;;;;;;;;1.13;74.22;100237.44;4973009;28;19922;-76
2022/03/02 10:42:36;;;;;;;;;;;;;;;1.08;74.12;100235.66;4974102;28;20460;-78
2022/03/02 10:45:30;;;;;;;;;;;;;;;1.16;74.08;100246.13;4974599;28;20004;-77
2022/03/02 10:48:06;;;;;;;;;;;;;;;1.12;74.23;100235.69;4987675;28;20309;-77
2022/03/02 10:50:33;;;;;;;;;;;;;;;1.23;73.98;100245.31;4973056;28;19969;-78
2022/03/02 10:52:58;;;;;;;;;;;;;;;1.18;73.83;100234.00;4974530;28;19976;-81
2022/03/02 10:55:24;;;;;;;;;;;;;;;1.20;74.24;100242.69;4974363;28;19918;-77
2022/03/02 10:57:51;;;;;;;;;;;;;;;1.22;74.06;100237.47;4974377;28;19918;-77
2022/03/02 11:00:18;;;;;;;;;;;;;;;1.27;73.77;100231.38;4974171;28;20009;-82
2022/03/02 11:02:48;;;;;;;;;;;;;;;1.25;73.86;100227.91;4972747;28;19965;-79
2022/03/02 11:05:16;;;;;;;;;;;;;;;1.19;73.91;100229.63;4974180;28;19965;-82
2022/03/02 11:07:42;;;;;;;;;;;;;;;1.23;73.88;100226.16;4972825;28;20353;-81
2022/03/02 11:10:12;;;;;;;;;;;;;;;1.20;73.80;100223.56;4974292;28;19925;-81
2022/03/02 11:12:39;;;;;;;;;;;;;;;1.29;74.06;100214.84;4974022;28;20344;-78
2022/03/02 11:15:05;;;;;;;;;;;;;;;1.18;73.66;100218.31;4974049;28;19997;-83
2022/03/02 11:17:31;;;;;;;;;;;;;;;1.22;73.46;100212.22;4973909;28;19925;-82
2022/03/02 11:19:57;;;;;;;;;;;;;;;1.19;73.54;100209.59;4971454;28;19918;-81
2022/03/02 11:22:24;;;;;;;;;;;;;;;1.18;73.42;100205.28;4973779;28;19966;-80
2022/03/02 11:24:55;;;;;;;;;;;;;;;1.18;73.22;100207.88;4973959;28;19922;-80
2022/03/02 11:27:28;;;;;;;;;;;;;;;1.21;73.23;100205.28;4973647;28;20411;-79
2022/03/02 11:30:02;;;;;;;;;;;;;;;1.24;73.15;100197.44;4973734;28;20293;-81
2022/03/02 11:32:28;;;;;;;;;;;;;;;1.24;73.21;100194.81;4972252;28;20328;-80
2022/03/02 11:34:56;;;;;;;;;;;;;;;1.27;72.92;100194.81;4972435;28;20371;-79
2022/03/02 11:37:23;;;;;;;;;;;;;;;1.32;73.03;100191.34;4972259;28;20373;-78
2022/03/02 11:39:49;;;;;;;;;;;;;;;1.24;72.85;100188.72;4972212;28;19922;-80
2022/03/02 11:42:15;;;;;;;;;;;;;;;1.25;72.91;100191.34;4972227;28;20296;-79
2022/03/02 11:44:41;;;;;;;;;;;;;;;1.25;72.92;100186.13;4972314;28;20428;-79
2022/03/02 11:47:14;;;;;;;;;;;;;;;1.27;72.77;100176.53;4972193;28;19918;-79
2022/03/02 11:49:42;;;;;;;;;;;;;;;1.24;72.71;100176.53;4971643;28;20377;-78
2022/03/02 11:52:12;;;;;;;;;;;;;;;1.30;72.70;100169.59;4971779;28;19918;-77
2022/03/02 11:54:46;;;;;;;;;;;;;;;1.24;72.75;100166.09;4972111;28;19925;-80
2022/03/02 11:57:13;;;;;;;;;;;;;;;1.34;72.80;100166.13;4973297;28;19922;-78
2022/03/02 11:59:39;;;;;;;;;;;;;;;1.31;72.36;100158.28;4973303;28;20042;-78
2022/03/02 12:02:19;;;;;;;;;;;;;;;1.25;72.52;100152.19;4973332;28;19918;-79
2022/03/02 12:05:03;;;;;;;;;;;;;;;1.30;72.47;100157.41;4971814;28;19922;-78
2022/03/02 12:07:48;;;;;;;;;;;;;;;1.27;72.58;100163.50;4973451;28;19953;-80
2022/03/02 12:10:15;;;;;;;;;;;;;;;1.30;72.70;100153.94;4988243;28;19919;-77
2022/03/02 12:12:41;;;;;;;;;;;;;;;1.31;72.55;100156.56;4973178;28;19922;-80
2022/03/02 12:15:06;;;;;;;;;;;;;;;1.31;72.58;100147.81;4971870;28;19922;-77
2022/03/02 12:17:33;;;;;;;;;;;;;;;1.31;72.28;100150.44;4971821;28;20421;-77
2022/03/02 12:20:01;;;;;;;;;;;;;;;1.31;72.35;100147.81;4971824;28;20281;-79
2022/03/02 12:22:34;;;;;;;;;;;;;;;1.30;72.23;100136.53;4972916;28;19922;-78
2022/03/02 12:25:00;;;;;;;;;;;;;;;1.36;72.32;100135.66;4971758;28;19914;-80
2022/03/02 12:27:25;;;;;;;;;;;;;;;1.37;72.21;100124.34;4972902;28;19922;-78
2022/03/02 12:29:52;;;;;;;;;;;;;;;1.33;72.14;100128.69;4972920;28;19914;-79
2022/03/02 12:32:17;;;;;;;;;;;;;;;1.40;72.33;100121.72;4972916;28;19918;-78
2022/03/02 12:34:45;;;;;;;;;;;;;;;1.34;72.21;100119.13;4971721;28;20390;-79
2022/03/02 12:37:11;;;;;;;;;;;;;;;1.34;72.24;100112.16;4971720;28;19925;-78
2022/03/02 12:39:37;;;;;;;;;;;;;;;1.37;72.39;100111.28;4972838;28;19940;-78
2022/03/02 12:42:07;;;;;;;;;;;;;;;1.43;72.48;100111.28;4971690;28;20370;-78
2022/03/02 12:44:35;;;;;;;;;;;;;;;1.44;72.41;100107.81;4972706;28;19926;-78
2022/03/02 12:47:03;;;;;;;;;;;;;;;1.49;72.57;100102.59;4971543;28;20273;-77
2022/03/02 12:49:30;;;;;;;;;;;;;;;1.50;72.46;100099.09;4971347;28;19922;-78
2022/03/02 12:51:55;;;;;;;;;;;;;;;1.77;74.82;100095.56;4972931;28;20352;-78
2022/03/02 12:54:21;;;;;;;;;;;;;;;2.01;77.86;100097.28;4972681;28;19978;-78
2022/03/02 12:56:47;;;;;;;;;;;;;;;2.13;80.66;100093.72;4972711;28;19918;-77
2022/03/02 12:59:12;;;;;;;;;;;;;;;2.24;82.79;100091.09;4971349;28;19922;-77
2022/03/02 13:01:37;;;;;;;;;;;;;;;2.23;84.43;100081.50;4973581;28;20013;-78
2022/03/02 13:04:04;;;;;;;;;;;;;;;2.32;86.03;100079.69;4975131;28;19965;-77
2022/03/02 13:06:32;;;;;;;;;;;;;;;2.43;86.88;100078.81;4976333;28;19922;-77
2022/03/02 13:09:04;;;;;;;;;;;;;;;2.45;87.63;100077.91;4976454;28;19929;-78
2022/03/02 13:11:33;;;;;;;;;;;;;;;2.54;88.45;100079.59;4976116;28;19918;-78
2022/03/02 13:13:58;;;;;;;;;;;;;;;2.48;89.25;100072.66;4974290;28;20062;-77
2022/03/02 13:16:24;;;;;;;;;;;;;;;2.51;90.21;100069.16;4974789;28;20373;-78
2022/03/02 13:18:51;;;;;;;;;;;;;;;2.51;90.99;100064.78;4974903;28;19918;-77
2022/03/02 13:21:18;;;;;;;;;;;;;;;2.38;92.13;100070.06;4976341;28;19973;-78
2022/03/02 13:24:04;;;;;;;;;;;;;;;2.41;93.45;100064.84;4976059;28;20710;-76
2022/03/02 13:26:29;;;;;;;;;;;;;;;2.46;94.71;100060.47;4976030;28;19948;-80
2022/03/02 13:29:03;;;;;;;;;;;;;;;2.52;95.91;100063.03;4976048;28;19914;-77
2022/03/02 13:31:28;;;;;;;;;;;;;;;2.62;97.27;100059.50;4976147;28;19976;-77
2022/03/02 13:34:00;;;;;;;;;;;;;;;2.78;99.02;100051.56;4974580;28;19923;-78
2022/03/02 13:36:31;;;;;;;;;;;;;;;3.01;100.00;100059.22;4975963;28;19972;-77
2022/03/02 13:39:04;;;;;;;;;;;;;;;3.09;100.00;100058.31;4975758;28;19918;-77
2022/03/02 13:41:46;;;;;;;;;;;;;;;3.23;100.00;100059.94;4974579;28;20328;-77
2022/03/02 13:44:26;;;;;;;;;;;;;;;3.35;100.00;100057.22;4975823;28;20408;-79
2022/03/02 13:47:07;;;;;;;;;;;;;;;3.36;100.00;100045.84;4974337;28;19922;-79
2022/03/02 13:49:50;;;;;;;;;;;;;;;3.43;100.00;100052.78;4974129;28;19945;-78
2022/03/02 13:52:41;;;;;;;;;;;;;;;3.49;100.00;100053.59;4975463;28;19972;-77
2022/03/02 13:55:09;;;;;;;;;;;;;;;3.54;100.00;100047.44;4974139;28;19922;-78
2022/03/02 13:57:35;;;;;;;;;;;;;;;3.57;100.00;100044.75;4975172;28;19973;-78
2022/03/02 14:00:18;;;;;;;;;;;;;;;3.66;100.00;100043.81;4974361;28;19922;-77
2022/03/02 14:02:44;;;;;;;;;;;;;;;3.69;100.00;100045.53;4975309;28;20336;-77
2022/03/02 14:05:10;;;;;;;;;;;;;;;3.73;100.00;100039.34;4974089;28;19918;-77
2022/03/02 14:07:36;;;;;;;;;;;;;;;3.70;100.00;100040.28;4975182;28;19919;-77
2022/03/02 14:10:03;;;;;;;;;;;;;;;3.79;100.00;100040.16;4975303;28;19945;-77
2022/03/02 14:12:28;;;;;;;;;;;;;;;3.85;100.00;100033.13;4975360;28;19918;-78
2022/03/02 14:14:53;;;;;;;;;;;;;;;3.87;100.00;100034.84;4974232;28;19924;-77
2022/03/02 14:17:18;;;;;;;;;;;;;;;3.97;100.00;100039.09;4975288;28;19918;-79
2022/03/02 14:19:46;;;;;;;;;;;;;;;4.00;100.00;100033.81;4973765;28;19925;-77
2022/03/02 14:22:15;;;;;;;;;;;;;;;4.02;100.00;100036.44;4990086;28;19972;-78
2022/03/02 14:24:42;;;;;;;;;;;;;;;4.07;100.00;100031.97;4974848;28;19922;-79
2022/03/02 14:27:16;;;;;;;;;;;;;;;3.51;100.00;100031.75;4973707;28;19918;-77
2022/03/02 14:29:50;;;;;;;;;;;;;;;2.86;100.00;100028.81;4975236;28;20016;-77
2022/03/02 14:32:15;;;;;;;;;;;;;;;2.70;100.00;100028.06;4972742;28;19922;-79
2022/03/02 14:34:43;;;;;;;;;;;;;;;2.52;100.00;100024.69;4973383;28;20280;-77
2022/03/02 14:37:19;;;;;;;;;;;;;;;2.37;99.33;100019.53;4973302;28;19914;-79
2022/03/02 14:40:03;;;;;;;;;;;;;;;2.40;97.28;100010.81;4974513;28;19922;-77
2022/03/02 14:42:29;;;;;;;;;;;;;;;2.24;96.03;100023.09;4974571;28;20005;-80
2022/03/02 14:45:05;;;;;;;;;;;;;;;2.26;94.61;100010.88;4973253;28;20013;-77
2022/03/02 14:47:31;;;;;;;;;;;;;;;2.17;93.59;100011.78;4974415;28;20005;-77
2022/03/02 14:49:56;;;;;;;;;;;;;;;2.06;92.91;100001.41;4969844;28;20013;-79
2022/03/02 14:52:27;;;;;;;;;;;;;;;2.04;91.79;100010.09;4972674;28;20284;-78
2022/03/02 14:54:52;;;;;;;;;;;;;;;1.89;91.07;100017.13;4972841;28;19930;-79
2022/03/02 14:57:18;;;;;;;;;;;;;;;1.87;90.54;100018.91;4972541;28;19926;-78
2022/03/02 14:59:46;;;;;;;;;;;;;;;1.87;89.46;100018.00;4973373;28;19922;-78
2022/03/02 15:02:11;;;;;;;;;;;;;;;1.84;88.67;100020.66;4970837;28;19958;-80
2022/03/02 15:04:36;;;;;;;;;;;;;;;1.85;87.64;100018.03;4971541;28;19988;-80
2022/03/02 15:07:02;;;;;;;;;;;;;;;1.72;86.87;100018.94;4972788;28;19922;-80
2022/03/02 15:09:27;;;;;;;;;;;;;;;1.68;86.23;100014.63;4972936;28;19918;-78
2022/03/02 15:11:52;;;;;;;;;;;;;;;1.67;85.56;100015.47;4972140;28;19985;-78
2022/03/02 15:17:09;;;;;;;;;;;;;;;1.56;84.72;100016.34;4973187;28;19980;-79
2022/03/02 15:19:42;;;;;;;;;;;;;;;1.53;84.43;100011.16;4971509;28;19985;-78
2022/03/02 15:22:09;;;;;;;;;;;;;;;1.59;84.22;100011.13;4974015;28;20072;-78
2022/03/02 15:24:36;;;;;;;;;;;;;;;1.48;83.92;100015.50;4973954;28;19919;-78
2022/03/02 15:27:01;;;;;;;;;;;;;;;1.51;83.84;100007.66;4971769;28;19922;-77
2022/03/02 15:29:31;;;;;;;;;;;;;;;1.47;83.73;100005.06;4973764;28;19929;-79
2022/03/02 15:32:00;;;;;;;;;;;;;;;1.37;83.30;100012.94;4972855;28;20012;-78
2022/03/02 15:34:29;;;;;;;;;;;;;;;1.29;83.16;100009.44;4972527;28;20476;-80
2022/03/02 15:36:56;;;;;;;;;;;;;;;1.33;82.98;100011.19;4972795;28;19930;-78
2022/03/02 15:39:29;;;;;;;;;;;;;;;1.32;82.71;100000.75;4970299;28;19922;-78
2022/03/02 15:41:55;;;;;;;;;;;;;;;1.34;83.06;100001.63;4970281;28;19929;-80
2022/03/02 15:44:22;;;;;;;;;;;;;;;1.30;83.00;99999.91;4973342;28;19919;-77
2022/03/02 15:46:48;;;;;;;;;;;;;;;1.23;82.87;99996.44;4972563;28;19973;-77
2022/03/02 15:49:13;;;;;;;;;;;;;;;1.26;82.80;100004.22;4972065;28;19922;-77
2022/03/02 15:51:38;;;;;;;;;;;;;;;1.19;82.45;100003.38;4971939;28;19922;-80
2022/03/02 15:54:11;;;;;;;;;;;;;;;1.24;82.37;100003.38;4969437;28;19929;-80
2022/03/02 15:56:38;;;;;;;;;;;;;;;1.23;82.21;100002.50;4969769;28;20460;-77
2022/03/02 15:59:07;;;;;;;;;;;;;;;1.20;82.06;99989.47;4973194;28;20377;-77
2022/03/02 16:01:34;;;;;;;;;;;;;;;1.15;82.24;99999.03;4972576;28;19944;-77
2022/03/02 16:04:02;;;;;;;;;;;;;;;1.21;81.86;100001.66;4971941;28;19919;-77
2022/03/02 16:06:28;;;;;;;;;;;;;;;1.13;81.88;100002.53;4973319;28;19925;-78
2022/03/02 16:08:54;;;;;;;;;;;;;;;1.07;81.79;99998.19;4972960;28;20265;-78
2022/03/02 16:11:19;;;;;;;;;;;;;;;1.03;81.65;100005.13;4973160;28;19918;-77
2022/03/02 16:13:59;;;;;;;;;;;;;;;1.09;81.64;99993.84;4972875;28;19945;-78
2022/03/02 16:16:25;;;;;;;;;;;;;;;1.11;81.71;99993.84;4973234;28;20280;-77
2022/03/02 16:18:51;;;;;;;;;;;;;;;1.05;81.22;99994.69;4971893;28;19922;-78
2022/03/02 16:21:21;;;;;;;;;;;;;;;1.09;81.43;99991.22;4971829;28;19925;-80
2022/03/02 16:23:47;;;;;;;;;;;;;;;1.04;81.71;99990.38;4971369;28;19926;-78
2022/03/02 16:26:13;;;;;;;;;;;;;;;1.00;81.39;99978.16;4972902;28;20273;-80
2022/03/02 16:28:43;;;;;;;;;;;;;;;1.03;81.39;99986.00;4972529;28;19930;-79
2022/03/02 16:31:10;;;;;;;;;;;;;;;0.92;81.30;99987.75;4972762;28;19926;-77
2022/03/02 16:33:36;;;;;;;;;;;;;;;1.00;81.37;99983.41;4971241;28;19933;-79
2022/03/02 16:36:01;;;;;;;;;;;;;;;1.01;81.24;99979.91;4970894;28;19926;-80
2022/03/02 16:38:27;;;;;;;;;;;;;;;0.97;81.42;99979.03;4976810;28;20443;-79
2022/03/02 16:40:52;;;;;;;;;;;;;;;0.99;81.38;99982.53;4976825;28;19922;-80
2022/03/02 16:43:19;;;;;;;;;;;;;;;0.97;81.24;99978.16;4975775;28;19918;-77
2022/03/02 16:45:45;;;;;;;;;;;;;;;0.92;81.11;99980.78;4976817;28;19940;-79
2022/03/02 16:48:11;;;;;;;;;;;;;;;1.01;81.23;99990.38;4975753;28;19919;-79
2022/03/02 16:50:36;;;;;;;;;;;;;;;0.89;80.63;99988.59;4976404;28;20419;-80
2022/03/02 16:53:02;;;;;;;;;;;;;;;0.90;80.82;99987.75;4976668;28;19976;-79
2022/03/02 16:55:30;;;;;;;;;;;;;;;0.95;80.53;99988.59;4976640;28;19918;-80
2022/03/02 16:57:55;;;;;;;;;;;;;;;0.87;80.58;99987.75;4975980;28;19918;-79
2022/03/02 17:00:27;;;;;;;;;;;;;;;0.98;80.70;99995.59;4975964;28;19926;-77
2022/03/02 17:02:54;;;;;;;;;;;;;;;0.94;80.57;99993.81;4974593;28;20305;-77
2022/03/02 17:05:19;;;;;;;;;;;;;;;0.87;80.43;99996.44;4976372;28;20365;-79
2022/03/02 17:07:45;;;;;;;;;;;;;;;0.93;80.43;99990.34;4976459;28;19922;-78
2022/03/02 17:10:10;;;;;;;;;;;;;;;0.93;80.00;99989.50;4976394;28;20243;-77
2022/03/02 17:12:35;;;;;;;;;;;;;;;0.82;80.18;99995.56;4976353;28;20408;-77
2022/03/02 17:15:04;;;;;;;;;;;;;;;0.79;80.00;100003.41;4974880;28;20285;-78
2022/03/02 17:17:29;;;;;;;;;;;;;;;0.97;80.25;100004.28;4975892;28;19961;-78
2022/03/02 17:19:55;;;;;;;;;;;;;;;0.84;79.77;99999.03;4974753;28;19925;-79
2022/03/02 17:22:22;;;;;;;;;;;;;;;0.90;80.00;100000.78;4974697;28;19969;-79
2022/03/02 17:24:49;;;;;;;;;;;;;;;0.93;79.47;99995.59;4976079;28;19918;-77
2022/03/02 17:27:15;;;;;;;;;;;;;;;0.95;79.48;99996.44;4976167;28;19972;-78
2022/03/02 17:29:40;;;;;;;;;;;;;;;0.94;79.51;99999.03;4975909;28;20021;-79
2022/03/02 17:32:06;;;;;;;;;;;;;;;0.81;79.05;99999.03;4974391;28;19938;-79
2022/03/02 17:34:32;;;;;;;;;;;;;;;0.95;79.07;100003.41;4974515;28;20322;-80
2022/03/02 17:36:57;;;;;;;;;;;;;;;0.88;78.85;100007.75;4975717;28;20255;-78
2022/03/02 17:39:22;;;;;;;;;;;;;;;0.90;79.02;100011.22;4972567;28;19926;-79
2022/03/02 17:41:48;;;;;;;;;;;;;;;0.81;78.97;100012.09;4974433;28;19918;-78
2022/03/02 17:44:13;;;;;;;;;;;;;;;0.83;78.99;100014.69;4974619;28;19922;-78
2022/03/02 17:46:38;;;;;;;;;;;;;;;0.92;79.01;100012.09;4974864;28;20471;-77
2022/03/02 17:49:04;;;;;;;;;;;;;;;0.76;78.69;100020.78;4972041;28;19922;-77
2022/03/02 17:51:32;;;;;;;;;;;;;;;0.72;78.85;100022.53;4974933;28;19922;-77
2022/03/02 17:53:59;;;;;;;;;;;;;;;0.78;78.61;100021.66;4974509;28;20030;-78
2022/03/02 17:56:24;;;;;;;;;;;;;;;0.74;78.45;100023.41;4973807;28;19922;-77
2022/03/02 17:58:50;;;;;;;;;;;;;;;0.90;78.34;100021.66;4974644;28;19918;-78
2022/03/02 18:01:15;;;;;;;;;;;;;;;0.84;78.19;100027.75;4974528;28;19985;-77
2022/03/02 18:03:40;;;;;;;;;;;;;;;0.86;78.03;100026.03;4971703;28;19914;-79
2022/03/02 18:06:05;;;;;;;;;;;;;;;0.86;78.20;100031.25;4974258;28;19922;-78
2022/03/02 18:08:34;;;;;;;;;;;;;;;0.89;77.96;100033.84;4974527;28;19964;-79
2022/03/02 18:11:00;;;;;;;;;;;;;;;0.85;78.04;100029.50;4974236;28;19914;-78
2022/03/02 18:13:25;;;;;;;;;;;;;;;0.89;78.08;100030.34;4974198;28;19918;-79
2022/03/02 18:15:50;;;;;;;;;;;;;;;0.81;77.51;100026.88;4974445;28;19925;-78
2022/03/02 18:18:16;;;;;;;;;;;;;;;0.88;77.69;100020.81;4972827;28;19922;-77
2022/03/02 18:20:41;;;;;;;;;;;;;;;0.87;77.58;100022.53;4974089;28;19977;-77
2022/03/02 18:23:06;;;;;;;;;;;;;;;0.84;77.46;100022.53;4974124;28;19922;-78
2022/03/02 18:25:32;;;;;;;;;;;;;;;0.80;77.29;100030.34;4974020;28;19957;-79
2022/03/02 18:27:57;;;;;;;;;;;;;;;0.82;77.15;100016.44;4956747;28;20045;-78
2022/03/02 18:30:22;;;;;;;;;;;;;;;0.87;76.80;100017.31;4972711;28;19922;-80
2022/03/02 18:32:48;;;;;;;;;;;;;;;0.81;76.97;100022.53;4972335;28;19925;-78
2022/03/02 18:35:13;;;;;;;;;;;;;;;0.82;76.71;100023.41;4972957;28;19982;-79
2022/03/02 18:37:39;;;;;;;;;;;;;;;0.87;77.06;100017.31;4974010;28;19925;-78
2022/03/02 18:40:05;;;;;;;;;;;;;;;0.81;76.69;100017.31;4973767;28;19922;-77
2022/03/02 18:42:30;;;;;;;;;;;;;;;0.92;76.81;100009.47;4972596;28;19928;-79
2022/03/02 18:44:56;;;;;;;;;;;;;;;0.88;76.76;100011.22;4972520;28;19925;-79
2022/03/02 18:47:21;;;;;;;;;;;;;;;0.89;76.57;100001.66;4973573;28;19950;-76
2022/03/02 18:49:51;;;;;;;;;;;;;;;0.87;76.75;100009.47;4972388;28;19965;-75
2022/03/02 18:52:17;;;;;;;;;;;;;;;0.94;76.65;100006.88;4972729;28;19918;-75
2022/03/02 18:54:43;;;;;;;;;;;;;;;0.89;76.45;100002.53;4973562;28;19922;-78
2022/03/02 18:57:08;;;;;;;;;;;;;;;0.89;76.40;99996.44;4973333;28;19922;-77
2022/03/02 18:59:34;;;;;;;;;;;;;;;0.90;76.40;100001.66;4973145;28;19997;-79
2022/03/02 19:01:59;;;;;;;;;;;;;;;0.94;76.38;100010.34;4973329;28;20393;-78
2022/03/02 19:04:26;;;;;;;;;;;;;;;0.86;76.24;100010.38;4970687;28;19973;-78
2022/03/02 19:06:51;;;;;;;;;;;;;;;0.91;76.14;100005.16;4973369;28;19988;-78
2022/03/02 19:09:21;;;;;;;;;;;;;;;0.82;75.92;100008.63;4973123;28;20344;-76
2022/03/02 19:11:48;;;;;;;;;;;;;;;0.86;76.11;100005.16;4973277;28;19922;-78
2022/03/02 19:14:15;;;;;;;;;;;;;;;0.90;76.17;100001.66;4972933;28;19926;-76
2022/03/02 19:16:40;;;;;;;;;;;;;;;0.88;76.09;100002.53;4987878;28;19922;-76
2022/03/02 19:19:06;;;;;;;;;;;;;;;0.93;76.13;100008.63;4971518;28;19918;-77
2022/03/02 19:21:34;;;;;;;;;;;;;;;0.88;75.96;100007.75;4971735;28;19922;-78
2022/03/02 19:24:00;;;;;;;;;;;;;;;0.93;75.97;100005.16;4969995;28;20076;-77
2022/03/02 19:26:25;;;;;;;;;;;;;;;0.94;75.88;100005.13;4986617;28;19934;-76
2022/03/02 19:28:50;;;;;;;;;;;;;;;0.92;75.79;100004.25;4972597;28;19926;-78
2022/03/02 19:31:16;;;;;;;;;;;;;;;0.92;75.84;100009.47;4971611;28;19929;-76
2022/03/02 19:33:42;;;;;;;;;;;;;;;0.95;75.77;100009.47;4970414;28;19955;-75
2022/03/02 19:36:07;;;;;;;;;;;;;;;0.94;75.64;100009.47;4972576;28;20290;-76
2022/03/02 19:41:28;;;;;;;;;;;;;;;0.94;75.66;100009.47;5022244;28;19929;-77
2022/03/02 19:43:54;;;;;;;;;;;;;;;0.92;75.57;100006.88;4972589;28;20085;-79
2022/03/02 19:46:19;;;;;;;;;;;;;;;0.92;75.66;99998.19;4972518;28;19922;-78
2022/03/02 19:48:47;;;;;;;;;;;;;;;0.96;75.43;99999.91;4971250;28;19925;-78
2022/03/02 19:51:12;;;;;;;;;;;;;;;0.97;75.34;99996.44;4971174;28;19926;-77
2022/03/02 19:53:38;;;;;;;;;;;;;;;0.98;75.08;100000.81;4972552;28;20432;-77
2022/03/02 19:56:06;;;;;;;;;;;;;;;0.96;74.97;99999.91;4972289;28;19944;-78
2022/03/02 19:58:34;;;;;;;;;;;;;;;0.94;74.81;99999.03;4972181;28;19978;-76
2022/03/02 20:00:59;;;;;;;;;;;;;;;0.99;74.96;99994.69;4972588;28;20383;-78
2022/03/02 20:03:25;;;;;;;;;;;;;;;0.96;75.11;100007.72;4969687;28;19918;-77
2022/03/02 20:05:50;;;;;;;;;;;;;;;0.97;75.03;100012.97;4972411;28;19965;-76
2022/03/02 20:08:16;;;;;;;;;;;;;;;0.93;74.76;100008.63;4972185;28;19922;-79